sensor_id;sensor_type;location;lat;lon;timestamp;P1;durP1;ratioP1;P2;durP2;ratioP2
54929;SDS011;40833;53.238;6.576;2023-06-10T00:01:29;7.50;;;4.20;;
54929;SDS011;40833;53.238;6.576;2023-06-10T00:03:55;8.60;;;3.08;;
54929;SDS011;40833;53.238;6.576;2023-06-10T00:06:21;6.97;;;3.63;;
54929;SDS011;40833;53.238;6.576;2023-06-10T00:08:49;5.40;;;3.55;;
54929;SDS011;40833;53.238;6.576;2023-06-10T00:11:15;6.78;;;3.53;;
54929;SDS011;40833;53.238;6.576;2023-06-10T00:13:41;7.50;;;3.55;;
54929;SDS011;40833;53.238;6.576;2023-06-10T00:16:07;4.40;;;3.47;;
54929;SDS011;40833;53.238;6.576;2023-06-10T00:18:32;4.60;;;3.85;;
54929;SDS011;40833;53.238;6.576;2023-06-10T00:20:58;7.90;;;3.75;;
54929;SDS011;40833;53.238;6.576;2023-06-10T00:23:29;6.97;;;3.65;;
54929;SDS011;40833;53.238;6.576;2023-06-10T00:25:57;6.38;;;3.80;;
54929;SDS011;40833;53.238;6.576;2023-06-10T00:28:24;9.60;;;3.60;;
54929;SDS011;40833;53.238;6.576;2023-06-10T00:30:50;7.57;;;3.78;;
54929;SDS011;40833;53.238;6.576;2023-06-10T00:33:16;8.20;;;3.75;;
54929;SDS011;40833;53.238;6.576;2023-06-10T00:35:42;6.28;;;3.55;;
54929;SDS011;40833;53.238;6.576;2023-06-10T00:38:08;8.05;;;4.05;;
54929;SDS011;40833;53.238;6.576;2023-06-10T00:40:38;8.48;;;4.40;;
54929;SDS011;40833;53.238;6.576;2023-06-10T00:43:05;7.90;;;3.80;;
54929;SDS011;40833;53.238;6.576;2023-06-10T00:45:32;7.15;;;3.55;;
54929;SDS011;40833;53.238;6.576;2023-06-10T00:47:59;6.05;;;3.97;;
54929;SDS011;40833;53.238;6.576;2023-06-10T00:50:25;5.63;;;3.42;;
54929;SDS011;40833;53.238;6.576;2023-06-10T00:52:52;6.03;;;4.07;;
54929;SDS011;40833;53.238;6.576;2023-06-10T00:55:19;7.20;;;3.53;;
54929;SDS011;40833;53.238;6.576;2023-06-10T00:57:45;9.70;;;4.25;;
54929;SDS011;40833;53.238;6.576;2023-06-10T01:00:14;6.43;;;4.20;;
54929;SDS011;40833;53.238;6.576;2023-06-10T01:02:41;8.25;;;4.22;;
54929;SDS011;40833;53.238;6.576;2023-06-10T01:05:10;8.70;;;3.80;;
54929;SDS011;40833;53.238;6.576;2023-06-10T01:07:38;6.10;;;4.17;;
54929;SDS011;40833;53.238;6.576;2023-06-10T01:10:20;5.17;;;4.13;;
54929;SDS011;40833;53.238;6.576;2023-06-10T01:13:00;7.50;;;3.83;;
54929;SDS011;40833;53.238;6.576;2023-06-10T01:15:31;8.33;;;3.87;;
54929;SDS011;40833;53.238;6.576;2023-06-10T01:17:58;10.03;;;3.67;;
54929;SDS011;40833;53.238;6.576;2023-06-10T01:20:25;7.47;;;4.27;;
54929;SDS011;40833;53.238;6.576;2023-06-10T01:22:53;7.80;;;4.30;;
54929;SDS011;40833;53.238;6.576;2023-06-10T01:25:20;4.87;;;3.77;;
54929;SDS011;40833;53.238;6.576;2023-06-10T01:27:53;7.20;;;3.67;;
54929;SDS011;40833;53.238;6.576;2023-06-10T01:33:07;9.67;;;4.00;;
54929;SDS011;40833;53.238;6.576;2023-06-10T01:35:34;7.03;;;3.57;;
54929;SDS011;40833;53.238;6.576;2023-06-10T01:38:02;6.63;;;3.50;;
54929;SDS011;40833;53.238;6.576;2023-06-10T01:40:29;6.97;;;3.53;;
54929;SDS011;40833;53.238;6.576;2023-06-10T01:42:56;9.10;;;3.83;;
54929;SDS011;40833;53.238;6.576;2023-06-10T01:45:22;5.33;;;3.27;;
54929;SDS011;40833;53.238;6.576;2023-06-10T01:47:48;5.30;;;3.40;;
54929;SDS011;40833;53.238;6.576;2023-06-10T01:50:13;5.37;;;3.37;;
54929;SDS011;40833;53.238;6.576;2023-06-10T01:52:40;11.00;;;3.27;;
54929;SDS011;40833;53.238;6.576;2023-06-10T01:55:05;5.30;;;3.73;;
54929;SDS011;40833;53.238;6.576;2023-06-10T01:57:31;8.47;;;3.67;;
54929;SDS011;40833;53.238;6.576;2023-06-10T01:59:57;9.47;;;3.63;;
54929;SDS011;40833;53.238;6.576;2023-06-10T02:02:22;7.03;;;4.03;;
54929;SDS011;40833;53.238;6.576;2023-06-10T02:04:49;5.47;;;3.57;;
54929;SDS011;40833;53.238;6.576;2023-06-10T02:07:15;4.47;;;3.33;;
54929;SDS011;40833;53.238;6.576;2023-06-10T02:09:41;7.30;;;4.13;;
54929;SDS011;40833;53.238;6.576;2023-06-10T02:12:07;8.73;;;4.17;;
54929;SDS011;40833;53.238;6.576;2023-06-10T02:14:33;13.33;;;3.90;;
54929;SDS011;40833;53.238;6.576;2023-06-10T02:16:59;6.97;;;3.33;;
54929;SDS011;40833;53.238;6.576;2023-06-10T02:19:25;9.50;;;3.70;;
54929;SDS011;40833;53.238;6.576;2023-06-10T02:21:51;7.27;;;3.47;;
54929;SDS011;40833;53.238;6.576;2023-06-10T02:24:17;6.40;;;4.07;;
54929;SDS011;40833;53.238;6.576;2023-06-10T02:26:43;7.13;;;3.80;;
54929;SDS011;40833;53.238;6.576;2023-06-10T02:29:10;6.27;;;3.57;;
54929;SDS011;40833;53.238;6.576;2023-06-10T02:31:36;7.97;;;4.03;;
54929;SDS011;40833;53.238;6.576;2023-06-10T02:34:02;6.67;;;4.17;;
54929;SDS011;40833;53.238;6.576;2023-06-10T02:36:29;8.70;;;3.73;;
54929;SDS011;40833;53.238;6.576;2023-06-10T02:38:54;10.40;;;4.07;;
54929;SDS011;40833;53.238;6.576;2023-06-10T02:41:20;11.60;;;3.93;;
54929;SDS011;40833;53.238;6.576;2023-06-10T02:43:47;8.30;;;3.90;;
54929;SDS011;40833;53.238;6.576;2023-06-10T02:46:12;8.50;;;3.63;;
54929;SDS011;40833;53.238;6.576;2023-06-10T02:48:41;11.50;;;4.30;;
54929;SDS011;40833;53.238;6.576;2023-06-10T02:51:10;3.83;;;3.50;;
54929;SDS011;40833;53.238;6.576;2023-06-10T02:53:36;8.67;;;4.10;;
54929;SDS011;40833;53.238;6.576;2023-06-10T02:56:01;9.53;;;4.47;;
54929;SDS011;40833;53.238;6.576;2023-06-10T02:58:27;6.83;;;3.90;;
54929;SDS011;40833;53.238;6.576;2023-06-10T03:00:53;8.50;;;3.90;;
54929;SDS011;40833;53.238;6.576;2023-06-10T03:03:18;8.30;;;4.20;;
54929;SDS011;40833;53.238;6.576;2023-06-10T03:05:45;9.93;;;4.37;;
54929;SDS011;40833;53.238;6.576;2023-06-10T03:08:11;5.40;;;4.17;;
54929;SDS011;40833;53.238;6.576;2023-06-10T03:10:36;12.60;;;4.23;;
54929;SDS011;40833;53.238;6.576;2023-06-10T03:13:02;10.63;;;4.10;;
54929;SDS011;40833;53.238;6.576;2023-06-10T03:15:28;7.07;;;3.77;;
54929;SDS011;40833;53.238;6.576;2023-06-10T03:17:54;10.47;;;3.80;;
54929;SDS011;40833;53.238;6.576;2023-06-10T03:20:20;7.47;;;3.70;;
54929;SDS011;40833;53.238;6.576;2023-06-10T03:22:46;6.17;;;3.90;;
54929;SDS011;40833;53.238;6.576;2023-06-10T03:25:12;7.53;;;4.30;;
54929;SDS011;40833;53.238;6.576;2023-06-10T03:27:39;18.90;;;4.80;;
54929;SDS011;40833;53.238;6.576;2023-06-10T03:30:06;8.00;;;4.20;;
54929;SDS011;40833;53.238;6.576;2023-06-10T03:32:33;8.67;;;4.70;;
54929;SDS011;40833;53.238;6.576;2023-06-10T03:35:00;6.80;;;4.20;;
54929;SDS011;40833;53.238;6.576;2023-06-10T03:37:26;11.60;;;5.40;;
54929;SDS011;40833;53.238;6.576;2023-06-10T03:39:52;17.03;;;4.77;;
54929;SDS011;40833;53.238;6.576;2023-06-10T03:42:17;9.10;;;4.77;;
54929;SDS011;40833;53.238;6.576;2023-06-10T03:44:43;15.43;;;5.87;;
54929;SDS011;40833;53.238;6.576;2023-06-10T03:47:09;7.37;;;4.40;;
54929;SDS011;40833;53.238;6.576;2023-06-10T03:49:34;10.33;;;4.40;;
54929;SDS011;40833;53.238;6.576;2023-06-10T03:52:01;12.20;;;4.87;;
54929;SDS011;40833;53.238;6.576;2023-06-10T03:54:27;9.17;;;4.73;;
54929;SDS011;40833;53.238;6.576;2023-06-10T03:56:53;12.90;;;4.63;;
54929;SDS011;40833;53.238;6.576;2023-06-10T03:59:18;10.37;;;4.70;;
54929;SDS011;40833;53.238;6.576;2023-06-10T04:01:44;8.67;;;4.57;;
54929;SDS011;40833;53.238;6.576;2023-06-10T04:04:11;8.27;;;5.00;;
54929;SDS011;40833;53.238;6.576;2023-06-10T04:06:39;8.83;;;4.97;;
54929;SDS011;40833;53.238;6.576;2023-06-10T04:09:06;9.30;;;5.27;;
54929;SDS011;40833;53.238;6.576;2023-06-10T04:11:32;8.97;;;5.20;;
54929;SDS011;40833;53.238;6.576;2023-06-10T04:13:59;8.77;;;5.43;;
54929;SDS011;40833;53.238;6.576;2023-06-10T04:16:24;16.67;;;5.93;;
54929;SDS011;40833;53.238;6.576;2023-06-10T04:18:50;11.17;;;5.30;;
54929;SDS011;40833;53.238;6.576;2023-06-10T04:21:16;9.90;;;5.60;;
54929;SDS011;40833;53.238;6.576;2023-06-10T04:23:41;9.83;;;5.63;;
54929;SDS011;40833;53.238;6.576;2023-06-10T04:26:07;9.33;;;4.90;;
54929;SDS011;40833;53.238;6.576;2023-06-10T04:28:33;11.60;;;5.57;;
54929;SDS011;40833;53.238;6.576;2023-06-10T04:30:58;11.23;;;5.80;;
54929;SDS011;40833;53.238;6.576;2023-06-10T04:33:24;16.37;;;5.90;;
54929;SDS011;40833;53.238;6.576;2023-06-10T04:35:50;13.53;;;5.57;;
54929;SDS011;40833;53.238;6.576;2023-06-10T04:38:16;15.03;;;6.07;;
54929;SDS011;40833;53.238;6.576;2023-06-10T04:40:41;8.57;;;5.07;;
54929;SDS011;40833;53.238;6.576;2023-06-10T04:43:07;13.70;;;6.07;;
54929;SDS011;40833;53.238;6.576;2023-06-10T04:45:33;14.00;;;6.30;;
54929;SDS011;40833;53.238;6.576;2023-06-10T04:47:59;16.50;;;6.83;;
54929;SDS011;40833;53.238;6.576;2023-06-10T04:50:24;17.53;;;7.07;;
54929;SDS011;40833;53.238;6.576;2023-06-10T04:52:50;12.73;;;6.70;;
54929;SDS011;40833;53.238;6.576;2023-06-10T04:55:16;15.80;;;8.57;;
54929;SDS011;40833;53.238;6.576;2023-06-10T04:57:42;16.27;;;7.20;;
54929;SDS011;40833;53.238;6.576;2023-06-10T05:00:08;13.63;;;6.47;;
54929;SDS011;40833;53.238;6.576;2023-06-10T05:02:34;18.23;;;7.00;;
54929;SDS011;40833;53.238;6.576;2023-06-10T05:05:00;16.67;;;6.47;;
54929;SDS011;40833;53.238;6.576;2023-06-10T05:07:26;13.77;;;6.77;;
54929;SDS011;40833;53.238;6.576;2023-06-10T05:09:51;15.43;;;6.23;;
54929;SDS011;40833;53.238;6.576;2023-06-10T05:12:17;13.43;;;5.67;;
54929;SDS011;40833;53.238;6.576;2023-06-10T05:14:43;12.77;;;5.83;;
54929;SDS011;40833;53.238;6.576;2023-06-10T05:17:09;13.10;;;6.03;;
54929;SDS011;40833;53.238;6.576;2023-06-10T05:19:35;14.83;;;5.87;;
54929;SDS011;40833;53.238;6.576;2023-06-10T05:22:02;15.83;;;6.27;;
54929;SDS011;40833;53.238;6.576;2023-06-10T05:24:28;15.60;;;6.83;;
54929;SDS011;40833;53.238;6.576;2023-06-10T05:26:54;12.00;;;5.50;;
54929;SDS011;40833;53.238;6.576;2023-06-10T05:29:19;12.33;;;5.83;;
54929;SDS011;40833;53.238;6.576;2023-06-10T05:31:45;12.10;;;5.47;;
54929;SDS011;40833;53.238;6.576;2023-06-10T05:34:11;14.03;;;5.43;;
54929;SDS011;40833;53.238;6.576;2023-06-10T05:36:37;11.83;;;6.23;;
54929;SDS011;40833;53.238;6.576;2023-06-10T05:39:05;15.47;;;6.10;;
54929;SDS011;40833;53.238;6.576;2023-06-10T05:41:31;14.40;;;5.80;;
54929;SDS011;40833;53.238;6.576;2023-06-10T05:43:57;12.13;;;5.43;;
54929;SDS011;40833;53.238;6.576;2023-06-10T05:46:22;15.40;;;5.97;;
54929;SDS011;40833;53.238;6.576;2023-06-10T05:48:48;13.27;;;5.67;;
54929;SDS011;40833;53.238;6.576;2023-06-10T05:51:13;14.20;;;5.87;;
54929;SDS011;40833;53.238;6.576;2023-06-10T05:53:39;13.43;;;6.13;;
54929;SDS011;40833;53.238;6.576;2023-06-10T05:56:05;11.50;;;5.30;;
54929;SDS011;40833;53.238;6.576;2023-06-10T05:58:31;14.60;;;6.77;;
54929;SDS011;40833;53.238;6.576;2023-06-10T06:00:56;13.57;;;5.30;;
54929;SDS011;40833;53.238;6.576;2023-06-10T06:03:22;12.07;;;5.40;;
54929;SDS011;40833;53.238;6.576;2023-06-10T06:05:48;12.87;;;5.40;;
54929;SDS011;40833;53.238;6.576;2023-06-10T06:08:13;12.10;;;5.27;;
54929;SDS011;40833;53.238;6.576;2023-06-10T06:10:42;12.70;;;5.67;;
54929;SDS011;40833;53.238;6.576;2023-06-10T06:13:08;10.53;;;6.00;;
54929;SDS011;40833;53.238;6.576;2023-06-10T06:15:33;11.40;;;4.83;;
54929;SDS011;40833;53.238;6.576;2023-06-10T06:17:59;10.90;;;5.83;;
54929;SDS011;40833;53.238;6.576;2023-06-10T06:20:25;9.80;;;5.17;;
54929;SDS011;40833;53.238;6.576;2023-06-10T06:22:50;10.07;;;4.83;;
54929;SDS011;40833;53.238;6.576;2023-06-10T06:25:16;11.17;;;5.00;;
54929;SDS011;40833;53.238;6.576;2023-06-10T06:27:42;10.83;;;5.13;;
54929;SDS011;40833;53.238;6.576;2023-06-10T06:30:08;9.60;;;4.80;;
54929;SDS011;40833;53.238;6.576;2023-06-10T06:32:34;11.23;;;4.60;;
54929;SDS011;40833;53.238;6.576;2023-06-10T06:34:59;10.93;;;5.00;;
54929;SDS011;40833;53.238;6.576;2023-06-10T06:37:25;8.80;;;4.57;;
54929;SDS011;40833;53.238;6.576;2023-06-10T06:39:51;13.97;;;4.93;;
54929;SDS011;40833;53.238;6.576;2023-06-10T06:42:18;11.43;;;4.90;;
54929;SDS011;40833;53.238;6.576;2023-06-10T06:44:44;9.03;;;4.27;;
54929;SDS011;40833;53.238;6.576;2023-06-10T06:47:10;13.63;;;5.73;;
54929;SDS011;40833;53.238;6.576;2023-06-10T06:49:36;9.50;;;4.43;;
54929;SDS011;40833;53.238;6.576;2023-06-10T06:52:02;9.10;;;4.70;;
54929;SDS011;40833;53.238;6.576;2023-06-10T06:54:28;11.17;;;4.87;;
54929;SDS011;40833;53.238;6.576;2023-06-10T06:56:54;15.70;;;4.83;;
54929;SDS011;40833;53.238;6.576;2023-06-10T06:59:20;9.73;;;4.70;;
54929;SDS011;40833;53.238;6.576;2023-06-10T07:01:46;13.90;;;4.37;;
54929;SDS011;40833;53.238;6.576;2023-06-10T07:04:14;12.50;;;4.80;;
54929;SDS011;40833;53.238;6.576;2023-06-10T07:06:41;10.00;;;4.93;;
54929;SDS011;40833;53.238;6.576;2023-06-10T07:09:07;9.47;;;4.43;;
54929;SDS011;40833;53.238;6.576;2023-06-10T07:11:35;12.47;;;5.00;;
54929;SDS011;40833;53.238;6.576;2023-06-10T07:14:01;8.07;;;4.67;;
54929;SDS011;40833;53.238;6.576;2023-06-10T07:16:27;11.90;;;4.97;;
54929;SDS011;40833;53.238;6.576;2023-06-10T07:18:53;11.00;;;4.20;;
54929;SDS011;40833;53.238;6.576;2023-06-10T07:21:19;14.13;;;4.57;;
54929;SDS011;40833;53.238;6.576;2023-06-10T07:23:45;13.90;;;4.83;;
54929;SDS011;40833;53.238;6.576;2023-06-10T07:26:11;15.10;;;4.07;;
54929;SDS011;40833;53.238;6.576;2023-06-10T07:28:39;6.60;;;4.27;;
54929;SDS011;40833;53.238;6.576;2023-06-10T07:31:07;8.73;;;4.53;;
54929;SDS011;40833;53.238;6.576;2023-06-10T07:33:33;8.43;;;3.43;;
54929;SDS011;40833;53.238;6.576;2023-06-10T07:35:59;7.97;;;3.90;;
54929;SDS011;40833;53.238;6.576;2023-06-10T07:38:25;12.93;;;4.10;;
54929;SDS011;40833;53.238;6.576;2023-06-10T07:40:51;7.00;;;3.37;;
54929;SDS011;40833;53.238;6.576;2023-06-10T07:43:17;7.53;;;3.80;;
54929;SDS011;40833;53.238;6.576;2023-06-10T07:45:43;6.90;;;3.23;;
54929;SDS011;40833;53.238;6.576;2023-06-10T07:48:09;8.13;;;3.60;;
54929;SDS011;40833;53.238;6.576;2023-06-10T07:50:35;7.47;;;3.50;;
54929;SDS011;40833;53.238;6.576;2023-06-10T07:53:01;6.97;;;3.08;;
54929;SDS011;40833;53.238;6.576;2023-06-10T07:55:27;10.40;;;4.38;;
54929;SDS011;40833;53.238;6.576;2023-06-10T07:57:53;9.57;;;3.40;;
54929;SDS011;40833;53.238;6.576;2023-06-10T08:00:19;5.53;;;3.37;;
54929;SDS011;40833;53.238;6.576;2023-06-10T08:02:45;8.68;;;3.50;;
54929;SDS011;40833;53.238;6.576;2023-06-10T08:05:11;9.60;;;3.90;;
54929;SDS011;40833;53.238;6.576;2023-06-10T08:07:37;9.02;;;3.60;;
54929;SDS011;40833;53.238;6.576;2023-06-10T08:10:05;6.32;;;3.58;;
54929;SDS011;40833;53.238;6.576;2023-06-10T08:12:31;10.63;;;3.55;;
54929;SDS011;40833;53.238;6.576;2023-06-10T08:14:58;8.15;;;3.60;;
54929;SDS011;40833;53.238;6.576;2023-06-10T08:17:24;8.15;;;3.53;;
54929;SDS011;40833;53.238;6.576;2023-06-10T08:19:49;8.20;;;3.63;;
54929;SDS011;40833;53.238;6.576;2023-06-10T08:22:15;9.55;;;2.75;;
54929;SDS011;40833;53.238;6.576;2023-06-10T08:24:41;5.80;;;3.08;;
54929;SDS011;40833;53.238;6.576;2023-06-10T08:27:06;7.15;;;2.97;;
54929;SDS011;40833;53.238;6.576;2023-06-10T08:29:32;10.05;;;3.80;;
54929;SDS011;40833;53.238;6.576;2023-06-10T08:31:58;9.40;;;2.92;;
54929;SDS011;40833;53.238;6.576;2023-06-10T08:34:24;7.32;;;3.38;;
54929;SDS011;40833;53.238;6.576;2023-06-10T08:36:50;8.32;;;3.38;;
54929;SDS011;40833;53.238;6.576;2023-06-10T08:39:18;8.13;;;3.28;;
54929;SDS011;40833;53.238;6.576;2023-06-10T08:41:46;8.10;;;3.33;;
54929;SDS011;40833;53.238;6.576;2023-06-10T08:44:33;12.10;;;4.13;;
54929;SDS011;40833;53.238;6.576;2023-06-10T08:47:04;6.80;;;3.05;;
54929;SDS011;40833;53.238;6.576;2023-06-10T08:49:35;13.00;;;3.88;;
54929;SDS011;40833;53.238;6.576;2023-06-10T08:52:06;9.13;;;3.35;;
54929;SDS011;40833;53.238;6.576;2023-06-10T08:54:33;10.88;;;3.38;;
54929;SDS011;40833;53.238;6.576;2023-06-10T08:57:03;7.35;;;3.03;;
54929;SDS011;40833;53.238;6.576;2023-06-10T08:59:31;10.30;;;3.05;;
54929;SDS011;40833;53.238;6.576;2023-06-10T09:01:57;10.88;;;3.10;;
54929;SDS011;40833;53.238;6.576;2023-06-10T09:04:26;12.23;;;3.20;;
54929;SDS011;40833;53.238;6.576;2023-06-10T09:06:52;7.60;;;2.92;;
54929;SDS011;40833;53.238;6.576;2023-06-10T09:09:18;8.23;;;3.20;;
54929;SDS011;40833;53.238;6.576;2023-06-10T09:11:45;8.98;;;2.75;;
54929;SDS011;40833;53.238;6.576;2023-06-10T09:14:11;6.18;;;3.28;;
54929;SDS011;40833;53.238;6.576;2023-06-10T09:16:39;8.75;;;3.17;;
54929;SDS011;40833;53.238;6.576;2023-06-10T09:19:06;10.00;;;3.08;;
54929;SDS011;40833;53.238;6.576;2023-06-10T09:21:33;7.53;;;3.22;;
54929;SDS011;40833;53.238;6.576;2023-06-10T09:24:00;9.57;;;3.60;;
54929;SDS011;40833;53.238;6.576;2023-06-10T09:26:29;8.60;;;3.30;;
54929;SDS011;40833;53.238;6.576;2023-06-10T09:29:05;8.32;;;2.97;;
54929;SDS011;40833;53.238;6.576;2023-06-10T09:31:35;7.32;;;2.63;;
54929;SDS011;40833;53.238;6.576;2023-06-10T09:34:13;9.43;;;2.95;;
54929;SDS011;40833;53.238;6.576;2023-06-10T09:36:40;7.43;;;2.80;;
54929;SDS011;40833;53.238;6.576;2023-06-10T09:39:16;8.25;;;2.60;;
54929;SDS011;40833;53.238;6.576;2023-06-10T09:41:44;8.30;;;3.22;;
54929;SDS011;40833;53.238;6.576;2023-06-10T09:44:14;7.82;;;2.88;;
54929;SDS011;40833;53.238;6.576;2023-06-10T09:46:42;5.78;;;3.30;;
54929;SDS011;40833;53.238;6.576;2023-06-10T09:49:10;12.73;;;2.72;;
54929;SDS011;40833;53.238;6.576;2023-06-10T09:51:35;6.97;;;2.90;;
54929;SDS011;40833;53.238;6.576;2023-06-10T09:54:02;8.70;;;3.05;;
54929;SDS011;40833;53.238;6.576;2023-06-10T09:56:35;12.40;;;3.20;;
54929;SDS011;40833;53.238;6.576;2023-06-10T09:59:01;7.35;;;2.70;;
54929;SDS011;40833;53.238;6.576;2023-06-10T10:01:27;7.47;;;3.40;;
54929;SDS011;40833;53.238;6.576;2023-06-10T10:03:53;6.32;;;3.13;;
54929;SDS011;40833;53.238;6.576;2023-06-10T10:06:19;9.15;;;2.90;;
54929;SDS011;40833;53.238;6.576;2023-06-10T10:08:46;7.45;;;3.33;;
54929;SDS011;40833;53.238;6.576;2023-06-10T10:11:14;7.55;;;3.20;;
54929;SDS011;40833;53.238;6.576;2023-06-10T10:13:42;10.60;;;3.60;;
54929;SDS011;40833;53.238;6.576;2023-06-10T10:16:19;7.13;;;2.83;;
54929;SDS011;40833;53.238;6.576;2023-06-10T10:18:55;9.43;;;2.92;;
54929;SDS011;40833;53.238;6.576;2023-06-10T10:21:30;6.50;;;2.88;;
54929;SDS011;40833;53.238;6.576;2023-06-10T10:24:07;5.35;;;2.83;;
54929;SDS011;40833;53.238;6.576;2023-06-10T10:26:39;9.10;;;3.30;;
54929;SDS011;40833;53.238;6.576;2023-06-10T10:29:28;12.38;;;3.30;;
54929;SDS011;40833;53.238;6.576;2023-06-10T10:31:58;8.35;;;3.10;;
54929;SDS011;40833;53.238;6.576;2023-06-10T10:37:10;6.70;;;2.90;;
54929;SDS011;40833;53.238;6.576;2023-06-10T10:39:35;7.40;;;3.25;;
54929;SDS011;40833;53.238;6.576;2023-06-10T10:42:02;6.03;;;2.50;;
54929;SDS011;40833;53.238;6.576;2023-06-10T10:44:30;8.00;;;3.40;;
54929;SDS011;40833;53.238;6.576;2023-06-10T10:46:56;6.70;;;3.00;;
54929;SDS011;40833;53.238;6.576;2023-06-10T10:49:27;6.10;;;2.85;;
54929;SDS011;40833;53.238;6.576;2023-06-10T10:51:55;7.93;;;3.00;;
54929;SDS011;40833;53.238;6.576;2023-06-10T10:54:28;6.13;;;2.80;;
54929;SDS011;40833;53.238;6.576;2023-06-10T10:57:18;7.75;;;3.40;;
54929;SDS011;40833;53.238;6.576;2023-06-10T11:04:58;5.68;;;3.00;;
54929;SDS011;40833;53.238;6.576;2023-06-10T11:07:25;10.00;;;3.35;;
54929;SDS011;40833;53.238;6.576;2023-06-10T11:10:02;6.18;;;2.35;;
54929;SDS011;40833;53.238;6.576;2023-06-10T11:13:13;6.18;;;2.40;;
54929;SDS011;40833;53.238;6.576;2023-06-10T11:15:21;9.18;;;2.92;;
54929;SDS011;40833;53.238;6.576;2023-06-10T11:31:24;5.60;;;2.90;;
54929;SDS011;40833;53.238;6.576;2023-06-10T11:33:53;4.68;;;2.35;;
54929;SDS011;40833;53.238;6.576;2023-06-10T11:36:23;4.68;;;2.30;;
54929;SDS011;40833;53.238;6.576;2023-06-10T11:38:52;5.65;;;3.05;;
54929;SDS011;40833;53.238;6.576;2023-06-10T11:41:23;10.35;;;3.13;;
54929;SDS011;40833;53.238;6.576;2023-06-10T11:43:51;4.93;;;2.67;;
54929;SDS011;40833;53.238;6.576;2023-06-10T11:46:18;7.22;;;2.80;;
54929;SDS011;40833;53.238;6.576;2023-06-10T11:48:54;7.82;;;3.30;;
54929;SDS011;40833;53.238;6.576;2023-06-10T11:51:24;5.68;;;2.38;;
54929;SDS011;40833;53.238;6.576;2023-06-10T11:53:51;4.95;;;2.53;;
54929;SDS011;40833;53.238;6.576;2023-06-10T11:58:51;5.35;;;2.63;;
54929;SDS011;40833;53.238;6.576;2023-06-10T12:01:29;7.05;;;2.50;;
54929;SDS011;40833;53.238;6.576;2023-06-10T12:03:57;6.68;;;2.40;;
54929;SDS011;40833;53.238;6.576;2023-06-10T12:06:27;4.53;;;3.08;;
54929;SDS011;40833;53.238;6.576;2023-06-10T12:09:28;4.30;;;2.88;;
54929;SDS011;40833;53.238;6.576;2023-06-10T14:02:10;2.92;;;2.03;;
54929;SDS011;40833;53.238;6.576;2023-06-10T14:18:15;4.53;;;1.88;;
54929;SDS011;40833;53.238;6.576;2023-06-10T14:37:27;5.40;;;2.30;;
54929;SDS011;40833;53.238;6.576;2023-06-10T14:39:53;2.97;;;1.83;;
54929;SDS011;40833;53.238;6.576;2023-06-10T14:44:45;4.60;;;1.85;;
54929;SDS011;40833;53.238;6.576;2023-06-10T14:47:11;4.20;;;1.65;;
54929;SDS011;40833;53.238;6.576;2023-06-10T14:49:36;5.57;;;1.55;;
54929;SDS011;40833;53.238;6.576;2023-06-10T21:44:58;10.40;;;3.85;;
54929;SDS011;40833;53.238;6.576;2023-06-10T21:47:24;18.45;;;4.25;;
54929;SDS011;40833;53.238;6.576;2023-06-10T21:49:50;13.65;;;4.30;;
54929;SDS011;40833;53.238;6.576;2023-06-10T21:52:16;13.10;;;4.15;;
54929;SDS011;40833;53.238;6.576;2023-06-10T21:54:42;9.82;;;4.47;;
54929;SDS011;40833;53.238;6.576;2023-06-10T21:57:08;14.60;;;3.97;;
54929;SDS011;40833;53.238;6.576;2023-06-10T21:59:34;9.75;;;4.20;;
54929;SDS011;40833;53.238;6.576;2023-06-10T22:02:01;12.40;;;5.72;;
54929;SDS011;40833;53.238;6.576;2023-06-10T22:04:27;10.20;;;4.03;;
54929;SDS011;40833;53.238;6.576;2023-06-10T22:06:53;13.00;;;3.92;;
54929;SDS011;40833;53.238;6.576;2023-06-10T22:09:19;14.07;;;4.40;;
54929;SDS011;40833;53.238;6.576;2023-06-10T22:11:46;12.85;;;3.80;;
54929;SDS011;40833;53.238;6.576;2023-06-10T22:14:12;14.43;;;4.30;;
54929;SDS011;40833;53.238;6.576;2023-06-10T22:16:38;13.15;;;3.97;;
54929;SDS011;40833;53.238;6.576;2023-06-10T22:19:04;8.23;;;4.22;;
54929;SDS011;40833;53.238;6.576;2023-06-10T22:21:30;8.88;;;3.47;;
54929;SDS011;40833;53.238;6.576;2023-06-10T22:23:55;12.30;;;4.20;;
54929;SDS011;40833;53.238;6.576;2023-06-10T22:26:21;10.98;;;4.70;;
54929;SDS011;40833;53.238;6.576;2023-06-10T22:28:46;10.65;;;4.60;;
54929;SDS011;40833;53.238;6.576;2023-06-10T22:31:12;13.98;;;6.30;;
54929;SDS011;40833;53.238;6.576;2023-06-10T22:33:38;15.65;;;5.43;;
54929;SDS011;40833;53.238;6.576;2023-06-10T22:36:04;15.38;;;5.15;;
54929;SDS011;40833;53.238;6.576;2023-06-10T22:38:29;29.40;;;14.77;;
54929;SDS011;40833;53.238;6.576;2023-06-10T22:40:55;15.55;;;5.47;;
54929;SDS011;40833;53.238;6.576;2023-06-10T22:43:21;11.27;;;5.15;;
54929;SDS011;40833;53.238;6.576;2023-06-10T22:45:46;10.70;;;4.60;;
54929;SDS011;40833;53.238;6.576;2023-06-10T22:48:12;9.80;;;4.00;;
54929;SDS011;40833;53.238;6.576;2023-06-10T22:50:38;9.82;;;4.57;;
54929;SDS011;40833;53.238;6.576;2023-06-10T22:53:03;12.48;;;4.15;;
54929;SDS011;40833;53.238;6.576;2023-06-10T22:55:30;10.95;;;4.55;;
54929;SDS011;40833;53.238;6.576;2023-06-10T22:57:56;9.40;;;4.28;;
54929;SDS011;40833;53.238;6.576;2023-06-10T23:00:21;14.07;;;5.00;;
54929;SDS011;40833;53.238;6.576;2023-06-10T23:02:47;13.43;;;5.25;;
54929;SDS011;40833;53.238;6.576;2023-06-10T23:05:13;8.15;;;3.95;;
54929;SDS011;40833;53.238;6.576;2023-06-10T23:07:39;8.18;;;4.10;;
54929;SDS011;40833;53.238;6.576;2023-06-10T23:10:05;10.88;;;4.63;;
54929;SDS011;40833;53.238;6.576;2023-06-10T23:12:31;11.63;;;4.63;;
54929;SDS011;40833;53.238;6.576;2023-06-10T23:14:57;8.23;;;4.03;;
54929;SDS011;40833;53.238;6.576;2023-06-10T23:17:22;12.15;;;4.25;;
54929;SDS011;40833;53.238;6.576;2023-06-10T23:19:48;9.98;;;3.90;;
54929;SDS011;40833;53.238;6.576;2023-06-10T23:22:15;9.90;;;4.13;;
54929;SDS011;40833;53.238;6.576;2023-06-10T23:24:42;8.50;;;4.38;;
54929;SDS011;40833;53.238;6.576;2023-06-10T23:27:09;9.52;;;4.30;;
54929;SDS011;40833;53.238;6.576;2023-06-10T23:29:36;11.07;;;4.28;;
54929;SDS011;40833;53.238;6.576;2023-06-10T23:32:02;8.85;;;4.00;;
54929;SDS011;40833;53.238;6.576;2023-06-10T23:34:28;9.93;;;4.43;;
54929;SDS011;40833;53.238;6.576;2023-06-10T23:36:54;10.13;;;4.05;;
54929;SDS011;40833;53.238;6.576;2023-06-10T23:39:21;11.18;;;3.50;;
54929;SDS011;40833;53.238;6.576;2023-06-10T23:41:47;11.45;;;4.03;;
54929;SDS011;40833;53.238;6.576;2023-06-10T23:44:13;9.98;;;3.70;;
54929;SDS011;40833;53.238;6.576;2023-06-10T23:46:39;8.73;;;3.58;;
54929;SDS011;40833;53.238;6.576;2023-06-10T23:49:05;7.93;;;4.10;;
54929;SDS011;40833;53.238;6.576;2023-06-10T23:51:34;11.50;;;4.32;;
54929;SDS011;40833;53.238;6.576;2023-06-10T23:54:01;10.02;;;3.60;;
54929;SDS011;40833;53.238;6.576;2023-06-10T23:56:27;7.47;;;3.80;;
54929;SDS011;40833;53.238;6.576;2023-06-10T23:58:54;9.10;;;3.50;;
